createdAt,value
2018-09-15T00:00:21.539Z,100963.00
2018-09-15T00:02:51.022Z,100962.00
2018-09-15T00:05:19.726Z,100961.00
2018-09-15T00:07:48.687Z,100967.00
2018-09-15T00:10:16.920Z,100962.00
2018-09-15T00:12:44.952Z,100970.00
2018-09-15T00:15:13.034Z,100964.00
2018-09-15T00:17:43.072Z,100973.00
2018-09-15T00:20:11.279Z,100965.00
2018-09-15T00:22:39.437Z,100963.00
2018-09-15T00:25:07.658Z,100970.00
2018-09-15T00:27:35.792Z,100972.00
2018-09-15T00:30:03.972Z,100976.00
2018-09-15T00:32:32.179Z,100967.00
2018-09-15T00:35:00.395Z,100973.00
2018-09-15T00:37:28.618Z,100969.00
2018-09-15T00:39:56.847Z,100972.00
2018-09-15T00:42:24.932Z,100975.00
2018-09-15T00:44:53.014Z,100978.00
2018-09-15T00:47:21.120Z,100974.00
2018-09-15T00:49:49.339Z,100975.00
2018-09-15T00:52:17.436Z,100974.00
2018-09-15T00:54:46.044Z,100979.00
2018-09-15T00:57:14.164Z,100978.00
2018-09-15T00:59:42.392Z,100980.00
2018-09-15T01:02:10.487Z,100978.00
2018-09-15T01:04:38.524Z,100979.00
2018-09-15T01:07:06.672Z,100979.00
2018-09-15T01:09:34.964Z,100980.00
2018-09-15T01:12:03.178Z,100983.00
2018-09-15T01:14:33.374Z,100978.00
2018-09-15T01:17:01.745Z,100977.00
2018-09-15T01:19:29.859Z,100980.00
2018-09-15T01:21:58.205Z,100989.00
2018-09-15T01:24:26.277Z,100987.00
2018-09-15T01:26:54.611Z,100991.00
2018-09-15T01:29:22.731Z,100987.00
2018-09-15T01:31:51.024Z,100989.00
2018-09-15T01:34:19.284Z,100992.00
2018-09-15T01:36:47.499Z,100990.00
2018-09-15T01:39:15.849Z,100994.00
2018-09-15T01:41:44.758Z,100991.00
2018-09-15T01:44:13.571Z,100997.00
2018-09-15T01:46:42.298Z,100995.00
2018-09-15T01:49:10.538Z,101001.00
2018-09-15T01:51:38.977Z,101003.00
2018-09-15T01:54:07.066Z,101006.00
2018-09-15T01:56:35.281Z,100997.00
2018-09-15T01:59:03.446Z,101005.00
2018-09-15T02:01:31.513Z,101001.00
2018-09-15T02:03:59.616Z,101009.00
2018-09-15T02:06:27.677Z,101015.00
2018-09-15T02:08:55.749Z,101004.00
2018-09-15T02:11:23.772Z,101021.00
2018-09-15T02:13:51.851Z,101008.00
2018-09-15T02:16:19.940Z,101010.00
2018-09-15T02:18:48.151Z,101014.00
2018-09-15T02:21:16.239Z,101006.00
2018-09-15T02:23:44.322Z,101019.00
2018-09-15T02:26:12.360Z,101025.00
2018-09-15T02:28:40.545Z,101024.00
2018-09-15T02:31:08.620Z,101020.00
2018-09-15T02:33:36.738Z,101029.00
2018-09-15T02:36:04.832Z,101031.00
2018-09-15T02:38:32.876Z,101026.00
2018-09-15T02:41:00.938Z,101024.00
2018-09-15T02:43:29.045Z,101032.00
2018-09-15T02:45:57.151Z,101034.00
2018-09-15T02:48:25.225Z,101033.00
2018-09-15T02:50:53.351Z,101024.00
2018-09-15T02:53:21.360Z,101030.00
2018-09-15T02:55:49.485Z,101030.00
2018-09-15T02:58:17.528Z,101033.00
2018-09-15T03:00:45.680Z,101029.00
2018-09-15T03:03:13.820Z,101049.00
2018-09-15T03:05:41.922Z,101045.00
2018-09-15T03:08:09.990Z,101040.00
2018-09-15T03:10:38.054Z,101052.00
2018-09-15T03:13:06.113Z,101045.00
2018-09-15T03:15:34.195Z,101050.00
2018-09-15T03:18:02.349Z,101047.00
2018-09-15T03:20:30.462Z,101052.00
2018-09-15T03:22:58.893Z,101057.00
2018-09-15T03:25:27.093Z,101050.00
2018-09-15T03:27:55.180Z,101055.00
2018-09-15T03:30:23.258Z,101054.00
2018-09-15T03:32:51.407Z,101054.00
2018-09-15T03:35:19.555Z,101062.00
2018-09-15T03:37:47.625Z,101063.00
2018-09-15T03:40:15.633Z,101068.00
2018-09-15T03:42:43.789Z,101063.00
2018-09-15T03:45:11.866Z,101063.00
2018-09-15T03:47:40.291Z,101064.00
2018-09-15T03:50:08.438Z,101067.00
2018-09-15T03:52:36.658Z,101068.00
2018-09-15T03:55:04.855Z,101067.00
2018-09-15T03:57:32.911Z,101065.00
2018-09-15T04:00:01.089Z,101051.00
2018-09-15T04:02:29.089Z,101063.00
2018-09-15T04:04:57.164Z,101062.00
2018-09-15T04:07:25.403Z,101061.00
2018-09-15T04:09:53.451Z,101069.00
2018-09-15T04:12:21.521Z,101065.00
2018-09-15T04:14:49.712Z,101064.00
2018-09-15T04:17:17.736Z,101057.00
2018-09-15T04:19:45.812Z,101072.00
2018-09-15T04:22:13.968Z,101065.00
2018-09-15T04:24:42.082Z,101070.00
2018-09-15T04:27:11.058Z,101069.00
2018-09-15T04:29:39.102Z,101079.00
2018-09-15T04:32:07.267Z,101084.00
2018-09-15T04:34:35.311Z,101091.00
2018-09-15T04:37:03.379Z,101107.00
2018-09-15T04:39:31.484Z,101100.00
2018-09-15T04:41:59.580Z,101105.00
2018-09-15T04:44:27.764Z,101106.00
2018-09-15T04:46:55.902Z,101114.00
2018-09-15T04:49:23.940Z,101118.00
2018-09-15T04:51:52.242Z,101108.00
2018-09-15T04:54:20.316Z,101120.00
2018-09-15T04:56:48.504Z,101124.00
2018-09-15T04:59:16.576Z,101121.00
2018-09-15T05:01:44.660Z,101142.00
2018-09-15T05:04:12.703Z,101132.00
2018-09-15T05:06:40.895Z,101133.00
2018-09-15T05:09:10.706Z,101129.00
2018-09-15T05:11:38.792Z,101129.00
2018-09-15T05:14:07.074Z,101122.00
2018-09-15T05:16:35.204Z,101131.00
2018-09-15T05:19:03.404Z,101133.00
2018-09-15T05:21:31.454Z,101124.00
2018-09-15T05:23:59.605Z,101143.00
2018-09-15T05:26:27.696Z,101147.00
2018-09-15T05:28:56.143Z,101148.00
2018-09-15T05:31:24.389Z,101151.00
2018-09-15T05:33:52.423Z,101153.00
2018-09-15T05:36:20.771Z,101156.00
2018-09-15T05:38:48.969Z,101162.00
2018-09-15T05:41:17.018Z,101162.00
2018-09-15T05:43:45.099Z,101164.00
2018-09-15T05:46:13.110Z,101164.00
2018-09-15T05:48:41.235Z,101167.00
2018-09-15T05:51:09.461Z,101174.00
2018-09-15T05:53:37.554Z,101176.00
2018-09-15T05:56:05.724Z,101177.00
2018-09-15T05:58:33.764Z,101181.00
2018-09-15T06:01:02.553Z,101183.00
2018-09-15T06:03:30.654Z,101183.00
2018-09-15T06:05:58.735Z,101193.00
2018-09-15T06:08:26.853Z,101187.00
2018-09-15T06:10:54.986Z,101190.00
2018-09-15T06:13:23.207Z,101192.00
2018-09-15T06:15:51.352Z,101202.00
2018-09-15T06:18:19.484Z,101201.00
2018-09-15T06:20:47.632Z,101197.00
2018-09-15T06:23:15.786Z,101197.00
2018-09-15T06:25:43.923Z,101200.00
2018-09-15T06:28:11.977Z,101195.00
2018-09-15T06:30:40.067Z,101199.00
2018-09-15T06:33:08.295Z,101195.00
2018-09-15T06:35:36.443Z,101196.00
2018-09-15T06:38:04.658Z,101198.00
2018-09-15T06:40:32.748Z,101207.00
2018-09-15T06:43:00.883Z,101214.00
2018-09-15T06:48:07.511Z,101209.00
2018-09-15T06:50:36.020Z,101207.00
2018-09-15T06:53:04.092Z,101212.00
2018-09-15T06:55:32.568Z,101218.00
2018-09-15T06:58:01.079Z,101223.00
2018-09-15T07:00:29.398Z,101223.00
2018-09-15T07:02:58.124Z,101221.00
2018-09-15T07:05:26.378Z,101229.00
2018-09-15T07:07:54.578Z,101227.00
2018-09-15T07:10:22.795Z,101231.00
2018-09-15T07:12:50.933Z,101235.00
2018-09-15T07:15:19.141Z,101242.00
2018-09-15T07:17:48.192Z,101249.00
2018-09-15T07:20:16.519Z,101242.00
2018-09-15T07:22:44.644Z,101227.00
2018-09-15T07:25:12.927Z,101233.00
2018-09-15T07:27:41.234Z,101248.00
2018-09-15T07:30:09.639Z,101242.00
2018-09-15T07:32:37.829Z,101245.00
2018-09-15T07:35:06.096Z,101254.00
2018-09-15T07:37:34.304Z,101251.00
2018-09-15T07:40:02.444Z,101254.00
2018-09-15T07:42:30.550Z,101246.00
2018-09-15T07:44:58.684Z,101261.00
2018-09-15T07:47:26.817Z,101252.00
2018-09-15T07:49:54.910Z,101256.00
2018-09-15T07:52:23.456Z,101267.00
2018-09-15T07:54:51.554Z,101266.00
2018-09-15T07:57:19.722Z,101270.00
2018-09-15T07:59:47.855Z,101266.00
2018-09-15T08:02:21.567Z,101270.00
2018-09-15T08:04:50.637Z,101267.00
2018-09-15T08:07:18.813Z,101266.00
2018-09-15T08:09:47.259Z,101263.00
2018-09-15T08:12:16.578Z,101266.00
2018-09-15T08:14:44.749Z,101265.00
2018-09-15T08:17:13.150Z,101265.00
2018-09-15T08:19:41.367Z,101276.00
2018-09-15T08:22:09.974Z,101272.00
2018-09-15T08:24:38.704Z,101270.00
2018-09-15T08:27:07.706Z,101276.00
2018-09-15T08:29:36.906Z,101268.00
2018-09-15T08:32:06.382Z,101284.00
2018-09-15T08:34:35.125Z,101278.00
2018-09-15T08:37:03.681Z,101290.00
2018-09-15T08:39:32.002Z,101276.00
2018-09-15T08:42:00.598Z,101290.00
2018-09-15T08:44:29.553Z,101289.00
2018-09-15T08:46:57.754Z,101290.00
2018-09-15T08:49:27.205Z,101289.00
2018-09-15T08:51:55.908Z,101291.00
2018-09-15T08:54:24.384Z,101285.00
2018-09-15T08:56:52.864Z,101295.00
2018-09-15T08:59:21.272Z,101292.00
2018-09-15T09:01:49.682Z,101285.00
2018-09-15T09:06:58.835Z,101284.00
2018-09-15T09:09:27.056Z,101282.00
2018-09-15T09:11:55.214Z,101280.00
2018-09-15T09:14:23.476Z,101291.00
2018-09-15T09:16:51.797Z,101282.00
2018-09-15T09:19:19.952Z,101287.00
2018-09-15T09:21:48.696Z,101287.00
2018-09-15T09:24:16.887Z,101295.00
2018-09-15T09:26:45.439Z,101291.00
2018-09-15T09:29:13.611Z,101291.00
2018-09-15T09:31:42.257Z,101291.00
2018-09-15T09:34:10.527Z,101281.00
2018-09-15T09:36:38.790Z,101278.00
2018-09-15T09:39:11.843Z,101288.00
2018-09-15T09:41:40.226Z,101282.00
2018-09-15T09:44:08.727Z,101276.00
2018-09-15T09:46:37.011Z,101270.00
2018-09-15T09:49:05.626Z,101280.00
2018-09-15T09:51:33.813Z,101276.00
2018-09-15T09:54:02.139Z,101280.00
2018-09-15T09:56:30.290Z,101281.00
2018-09-15T09:58:58.495Z,101276.00
2018-09-15T10:01:33.156Z,101279.00
2018-09-15T10:04:01.388Z,101277.00
2018-09-15T10:06:29.596Z,101287.00
2018-09-15T10:08:57.834Z,101281.00
2018-09-15T10:11:26.005Z,101272.00
2018-09-15T10:13:57.151Z,101279.00
2018-09-15T10:16:25.519Z,101276.00
2018-09-15T10:18:53.678Z,101198.00
2018-09-15T10:21:21.923Z,101279.00
2018-09-15T10:23:50.804Z,101279.00
2018-09-15T10:26:19.034Z,101283.00
2018-09-15T10:28:47.143Z,101264.00
2018-09-15T10:31:15.398Z,101282.00
2018-09-15T10:33:43.589Z,101278.00
2018-09-15T10:36:11.848Z,101281.00
2018-09-15T10:38:40.112Z,101280.00
2018-09-15T10:41:08.208Z,101277.00
2018-09-15T10:43:36.636Z,101272.00
2018-09-15T10:46:04.808Z,101282.00
2018-09-15T10:48:32.923Z,101276.00
2018-09-15T10:51:01.141Z,101283.00
2018-09-15T10:53:29.211Z,101274.00
2018-09-15T10:55:57.368Z,101267.00
2018-09-15T10:58:25.480Z,101268.00
2018-09-15T11:00:53.748Z,101281.00
2018-09-15T11:03:22.421Z,101268.00
2018-09-15T11:05:51.039Z,101282.00
2018-09-15T11:08:19.165Z,101272.00
2018-09-15T11:10:47.330Z,101267.00
2018-09-15T11:13:15.665Z,101258.00
2018-09-15T11:15:43.803Z,101259.00
2018-09-15T11:18:12.549Z,101266.00
2018-09-15T11:20:40.640Z,101265.00
2018-09-15T11:23:08.688Z,101263.00
2018-09-15T11:25:37.191Z,101279.00
2018-09-15T11:28:05.308Z,101263.00
2018-09-15T11:30:34.241Z,101265.00
2018-09-15T11:33:02.455Z,101264.00
2018-09-15T11:35:31.467Z,101269.00
2018-09-15T11:38:00.082Z,101268.00
2018-09-15T11:40:28.158Z,101248.00
2018-09-15T11:42:56.292Z,101256.00
2018-09-15T11:45:24.613Z,101248.00
2018-09-15T11:47:52.811Z,101251.00
2018-09-15T11:50:21.016Z,101249.00
2018-09-15T11:52:49.300Z,101251.00
2018-09-15T11:55:18.270Z,101245.00
2018-09-15T11:57:46.373Z,101258.00
2018-09-15T12:00:17.821Z,101245.00
2018-09-15T12:02:46.200Z,101259.00
2018-09-15T12:05:14.464Z,101255.00
2018-09-15T12:07:42.747Z,101256.00
2018-09-15T12:10:10.964Z,101261.00
2018-09-15T12:12:39.561Z,101275.00
2018-09-15T12:15:07.826Z,101267.00
2018-09-15T12:17:36.125Z,101263.00
2018-09-15T12:20:04.621Z,101268.00
2018-09-15T12:22:32.990Z,101277.00
2018-09-15T12:25:01.557Z,101276.00
2018-09-15T12:27:29.769Z,101275.00
2018-09-15T12:29:58.634Z,101268.00
2018-09-15T12:32:26.830Z,101267.00
2018-09-15T12:34:55.021Z,101270.00
2018-09-15T12:37:23.239Z,101275.00
2018-09-15T12:39:51.412Z,101275.00
2018-09-15T12:42:19.796Z,101269.00
2018-09-15T12:44:48.065Z,101276.00
2018-09-15T12:47:16.425Z,101277.00
2018-09-15T12:49:44.581Z,101272.00
2018-09-15T12:52:12.965Z,101258.00
2018-09-15T12:54:41.090Z,101263.00
2018-09-15T12:57:09.193Z,101272.00
2018-09-15T12:59:37.412Z,101264.00
2018-09-15T13:02:05.742Z,101267.00
2018-09-15T13:04:33.994Z,101262.00
2018-09-15T13:07:02.276Z,101261.00
2018-09-15T13:09:30.436Z,101266.00
2018-09-15T13:11:58.669Z,101261.00
2018-09-15T13:14:26.897Z,101255.00
2018-09-15T13:16:55.066Z,101248.00
2018-09-15T13:19:23.884Z,101257.00
2018-09-15T13:21:52.173Z,101255.00
2018-09-15T13:24:20.439Z,101261.00
2018-09-15T13:26:49.330Z,101257.00
2018-09-15T13:29:18.453Z,101254.00
2018-09-15T13:31:46.625Z,101255.00
2018-09-15T13:34:14.753Z,101255.00
2018-09-15T13:36:42.996Z,101258.00
2018-09-15T13:39:11.927Z,101258.00
2018-09-15T13:41:40.181Z,101256.00
2018-09-15T13:44:08.578Z,101261.00
2018-09-15T13:46:36.928Z,101255.00
2018-09-15T13:49:05.484Z,101241.00
2018-09-15T13:51:33.616Z,101244.00
2018-09-15T13:54:01.798Z,101247.00
2018-09-15T13:56:29.962Z,101237.00
2018-09-15T13:58:58.335Z,101242.00
2018-09-15T14:01:26.432Z,101240.00
2018-09-15T14:03:54.684Z,101240.00
2018-09-15T14:06:22.911Z,101231.00
2018-09-15T14:08:51.145Z,101232.00
2018-09-15T14:11:19.507Z,101236.00
2018-09-15T14:13:47.742Z,101234.00
2018-09-15T14:16:16.120Z,101223.00
2018-09-15T14:18:44.397Z,101234.00
2018-09-15T14:21:12.968Z,101241.00
2018-09-15T14:23:41.165Z,101249.00
2018-09-15T14:26:09.470Z,101251.00
2018-09-15T14:28:37.802Z,101260.00
2018-09-15T14:31:06.141Z,101256.00
2018-09-15T14:33:41.188Z,101257.00
2018-09-15T14:36:09.565Z,101244.00
2018-09-15T14:38:38.483Z,101248.00
2018-09-15T14:41:07.782Z,101240.00
2018-09-15T14:43:36.016Z,101245.00
2018-09-15T14:46:04.417Z,101242.00
2018-09-15T14:48:32.677Z,101085.00
2018-09-15T14:51:00.902Z,101240.00
2018-09-15T14:53:29.136Z,101249.00
2018-09-15T14:55:57.400Z,101237.00
2018-09-15T14:58:25.517Z,101233.00
2018-09-15T15:00:53.716Z,101246.00
2018-09-15T15:03:22.283Z,101245.00
2018-09-15T15:05:50.375Z,101235.00
2018-09-15T15:08:18.524Z,101244.00
2018-09-15T15:10:46.665Z,101240.00
2018-09-15T15:13:14.808Z,101238.00
2018-09-15T15:15:42.957Z,101239.00
2018-09-15T15:18:11.088Z,101233.00
2018-09-15T15:20:39.295Z,101236.00
2018-09-15T15:23:07.492Z,101246.00
2018-09-15T15:25:35.885Z,101236.00
2018-09-15T15:28:04.205Z,101247.00
2018-09-15T15:30:32.555Z,101249.00
2018-09-15T15:33:00.718Z,101256.00
2018-09-15T15:35:28.939Z,101255.00
2018-09-15T15:37:57.088Z,101253.00
2018-09-15T15:40:25.227Z,101244.00
2018-09-15T15:42:54.094Z,101245.00
2018-09-15T15:45:23.145Z,101247.00
2018-09-15T15:47:51.445Z,101252.00
2018-09-15T15:50:19.901Z,101246.00
2018-09-15T15:52:47.990Z,101244.00
2018-09-15T15:55:16.154Z,101244.00
2018-09-15T15:57:44.441Z,101243.00
2018-09-15T16:00:12.754Z,101239.00
2018-09-15T16:02:40.904Z,101248.00
2018-09-15T16:05:09.146Z,101247.00
2018-09-15T16:07:37.317Z,101247.00
2018-09-15T16:10:05.805Z,101246.00
2018-09-15T16:12:34.813Z,101247.00
2018-09-15T16:15:03.710Z,101257.00
2018-09-15T16:17:31.910Z,101258.00
2018-09-15T16:20:00.095Z,101250.00
2018-09-15T16:22:28.195Z,101259.00
2018-09-15T16:24:56.468Z,101266.00
2018-09-15T16:27:25.234Z,101263.00
2018-09-15T16:29:53.568Z,101264.00
2018-09-15T16:32:21.808Z,101250.00
2018-09-15T16:34:50.042Z,101265.00
2018-09-15T16:37:18.305Z,101260.00
2018-09-15T16:39:46.486Z,101263.00
2018-09-15T16:42:14.682Z,101258.00
2018-09-15T16:44:42.922Z,101253.00
2018-09-15T16:47:11.101Z,101258.00
2018-09-15T16:49:39.480Z,101255.00
2018-09-15T16:52:08.462Z,101265.00
2018-09-15T16:54:36.762Z,101258.00
2018-09-15T16:57:11.662Z,101261.00
2018-09-15T16:59:39.992Z,101262.00
2018-09-15T17:02:08.662Z,101262.00
2018-09-15T17:04:37.073Z,101259.00
2018-09-15T17:07:05.572Z,101266.00
2018-09-15T17:09:33.804Z,101261.00
2018-09-15T17:12:02.012Z,101266.00
2018-09-15T17:14:30.300Z,101260.00
2018-09-15T17:16:58.439Z,101266.00
2018-09-15T17:19:27.200Z,101263.00
2018-09-15T17:21:55.405Z,101265.00
2018-09-15T17:24:23.752Z,101263.00
2018-09-15T17:26:52.066Z,101275.00
2018-09-15T17:29:20.240Z,101271.00
2018-09-15T17:31:48.310Z,101277.00
2018-09-15T17:34:16.552Z,101284.00
2018-09-15T17:36:44.733Z,101284.00
2018-09-15T17:39:12.918Z,101277.00
2018-09-15T17:41:41.212Z,101280.00
2018-09-15T17:44:09.565Z,101282.00
2018-09-15T17:46:38.006Z,101291.00
2018-09-15T17:49:06.276Z,101289.00
2018-09-15T17:51:34.537Z,101294.00
2018-09-15T17:54:02.793Z,101297.00
2018-09-15T17:56:30.889Z,101301.00
2018-09-15T17:58:59.173Z,101295.00
2018-09-15T18:01:28.522Z,101303.00
2018-09-15T18:03:57.225Z,101309.00
2018-09-15T18:06:26.038Z,101306.00
2018-09-15T18:08:54.408Z,101310.00
2018-09-15T18:11:22.876Z,101312.00
2018-09-15T18:13:51.193Z,101316.00
2018-09-15T18:16:19.419Z,101310.00
2018-09-15T18:18:47.676Z,101318.00
2018-09-15T18:21:16.039Z,101317.00
2018-09-15T18:23:44.406Z,101315.00
2018-09-15T18:26:12.954Z,101317.00
2018-09-15T18:28:41.579Z,101319.00
2018-09-15T18:31:10.782Z,101324.00
2018-09-15T18:33:39.448Z,101316.00
2018-09-15T18:36:08.521Z,101264.00
2018-09-15T18:38:36.711Z,101327.00
2018-09-15T18:41:06.108Z,101326.00
2018-09-15T18:43:35.542Z,101333.00
2018-09-15T18:46:03.898Z,101337.00
2018-09-15T18:48:32.322Z,101336.00
2018-09-15T18:51:00.618Z,101342.00
2018-09-15T18:53:28.960Z,101334.00
2018-09-15T18:55:57.282Z,101341.00
2018-09-15T18:58:25.829Z,101342.00
2018-09-15T19:00:54.714Z,101341.00
2018-09-15T19:03:23.567Z,101340.00
2018-09-15T19:05:51.985Z,101347.00
2018-09-15T19:08:20.890Z,101345.00
2018-09-15T19:10:49.334Z,101346.00
2018-09-15T19:13:17.774Z,101349.00
2018-09-15T19:15:46.370Z,101345.00
2018-09-15T19:18:15.268Z,101356.00
2018-09-15T19:20:43.579Z,101346.00
2018-09-15T19:23:12.574Z,101355.00
2018-09-15T19:25:40.836Z,101351.00
2018-09-15T19:28:10.439Z,101348.00
2018-09-15T19:30:39.005Z,101344.00
2018-09-15T19:33:07.408Z,101351.00
2018-09-15T19:35:35.795Z,101291.00
2018-09-15T19:38:05.358Z,101379.00
2018-09-15T19:40:34.416Z,101346.00
2018-09-15T19:43:02.649Z,101352.00
2018-09-15T19:45:32.014Z,101358.00
2018-09-15T19:48:01.055Z,101357.00
2018-09-15T19:50:29.565Z,101357.00
2018-09-15T19:52:58.959Z,101372.00
2018-09-15T19:55:27.201Z,101359.00
2018-09-15T19:57:55.400Z,101355.00
2018-09-15T20:00:23.740Z,101369.00
2018-09-15T20:02:52.053Z,101361.00
2018-09-15T20:05:20.524Z,101365.00
2018-09-15T20:07:48.744Z,101364.00
2018-09-15T20:10:17.138Z,101371.00
2018-09-15T20:12:45.555Z,101367.00
2018-09-15T20:15:22.748Z,101365.00
2018-09-15T20:17:50.304Z,101368.00
2018-09-15T20:20:16.895Z,101365.00
2018-09-15T20:22:45.415Z,101367.00
2018-09-15T20:25:13.688Z,101368.00
2018-09-15T20:27:42.438Z,101376.00
2018-09-15T20:30:11.256Z,101381.00
2018-09-15T20:32:39.585Z,101381.00
2018-09-15T20:35:08.231Z,101378.00
2018-09-15T20:37:37.595Z,101382.00
2018-09-15T20:40:06.681Z,101384.00
2018-09-15T20:42:34.909Z,101383.00
2018-09-15T20:45:04.437Z,101389.00
2018-09-15T20:47:32.784Z,101388.00
2018-09-15T20:50:02.051Z,101388.00
2018-09-15T20:52:30.366Z,101397.00
2018-09-15T20:54:58.841Z,101394.00
2018-09-15T20:57:27.214Z,101392.00
2018-09-15T20:59:55.391Z,101396.00
2018-09-15T21:02:23.964Z,101394.00
2018-09-15T21:04:52.543Z,101396.00
2018-09-15T21:07:21.032Z,101401.00
2018-09-15T21:09:49.740Z,101398.00
2018-09-15T21:12:18.563Z,101401.00
2018-09-15T21:14:47.151Z,101394.00
2018-09-15T21:17:15.541Z,101397.00
2018-09-15T21:19:43.777Z,101399.00
2018-09-15T21:22:11.953Z,101400.00
2018-09-15T21:24:40.080Z,101405.00
2018-09-15T21:27:08.413Z,101397.00
2018-09-15T21:29:36.795Z,101404.00
2018-09-15T21:32:05.087Z,101406.00
2018-09-15T21:34:33.273Z,101408.00
2018-09-15T21:37:01.490Z,101406.00
2018-09-15T21:39:29.662Z,101412.00
2018-09-15T21:41:57.816Z,101408.00
2018-09-15T21:44:25.990Z,101407.00
2018-09-15T21:46:54.140Z,101403.00
2018-09-15T21:49:22.331Z,101397.00
2018-09-15T21:51:50.457Z,101403.00
2018-09-15T21:54:18.611Z,101390.00
2018-09-15T21:56:46.767Z,101397.00
2018-09-15T21:59:14.875Z,101402.00
2018-09-15T22:01:43.055Z,101406.00
2018-09-15T22:04:16.856Z,101413.00
2018-09-15T22:06:44.979Z,101410.00
2018-09-15T22:09:13.466Z,101408.00
2018-09-15T22:11:42.163Z,101411.00
2018-09-15T22:14:11.179Z,101406.00
2018-09-15T22:16:39.624Z,101419.00
2018-09-15T22:19:08.486Z,101410.00
2018-09-15T22:21:36.731Z,101418.00
2018-09-15T22:24:05.041Z,101412.00
2018-09-15T22:26:33.543Z,101408.00
2018-09-15T22:29:01.904Z,101414.00
2018-09-15T22:31:30.115Z,101416.00
2018-09-15T22:33:59.193Z,101414.00
2018-09-15T22:36:27.480Z,101412.00
2018-09-15T22:38:55.698Z,101417.00
2018-09-15T22:41:23.871Z,101400.00
2018-09-15T22:43:52.011Z,101413.00
2018-09-15T22:46:20.595Z,101415.00
2018-09-15T22:48:48.680Z,101413.00
2018-09-15T22:51:16.771Z,101406.00
2018-09-15T22:53:45.142Z,101412.00
2018-09-15T22:56:13.252Z,101396.00
2018-09-15T22:58:41.352Z,101413.00
2018-09-15T23:01:09.464Z,101408.00
2018-09-15T23:03:37.617Z,101401.00
2018-09-15T23:06:05.735Z,101402.00
2018-09-15T23:08:33.847Z,101403.00
2018-09-15T23:11:01.958Z,101400.00
2018-09-15T23:13:30.249Z,101407.00
2018-09-15T23:15:58.428Z,101403.00
2018-09-15T23:18:26.559Z,101402.00
2018-09-15T23:20:54.687Z,101402.00
2018-09-15T23:23:23.400Z,101402.00
2018-09-15T23:25:51.468Z,101407.00
2018-09-15T23:28:19.561Z,101402.00
2018-09-15T23:30:47.705Z,101405.00
2018-09-15T23:33:15.798Z,101411.00
2018-09-15T23:35:44.025Z,101403.00
2018-09-15T23:38:12.077Z,101401.00
2018-09-15T23:40:40.135Z,101399.00
2018-09-15T23:43:08.336Z,101402.00
2018-09-15T23:45:36.440Z,101400.00
2018-09-15T23:48:04.587Z,101402.00
2018-09-15T23:50:32.790Z,101392.00
2018-09-15T23:53:00.847Z,101391.00
2018-09-15T23:55:28.868Z,101389.00
2018-09-15T23:57:56.931Z,101387.00
